| time (UTC) | temp C | wind direction | speed KPH | gust KPH | rain 1hr cm | rain 24hr cm | rain mn cm | humidity % | barometer mb |
| 20260906215017 | 29 | 227 | 4.8 | 22.5 | 0.00 | 0.00 | 0.00 | 35 | 1024.9 |
| 20260906214548 | 29 | 134 | 4.8 | 24.1 | 0.00 | 0.00 | 0.00 | 34 | 1025.1 |
| 20260906214018 | 29 | 225 | 6.4 | 24.1 | 0.00 | 0.00 | 0.00 | 34 | 1025.2 |
| 20260906213518 | 29 | 209 | 8.0 | 17.7 | 0.00 | 0.00 | 0.00 | 33 | 1025.3 |
| 20260906213043 | 29 | 189 | 4.8 | 16.1 | 0.00 | 0.00 | 0.00 | 34 | 1025.3 |
| 20260906212517 | 29 | 142 | 9.7 | 16.1 | 0.00 | 0.00 | 0.00 | 34 | 1025.5 |
| 20260906212019 | 29 | 113 | 3.2 | 14.5 | 0.00 | 0.00 | 0.00 | 36 | 1025.4 |
| 20260906211552 | 29 | 124 | 4.8 | 14.5 | 0.00 | 0.00 | 0.00 | 35 | 1025.4 |
| 20260906211019 | 29 | 232 | 4.8 | 19.3 | 0.00 | 0.00 | 0.00 | 34 | 1025.5 |
| 20260906210521 | 29 | 196 | 8.0 | 19.3 | 0.00 | 0.00 | 0.00 | 36 | 1025.5 |
| 20260906210105 | 28 | 128 | 3.2 | 16.1 | 0.00 | 0.00 | 0.00 | 37 | 1025.6 |
| 20260906205518 | 29 | 112 | 8.0 | 22.5 | 0.00 | 0.00 | 0.00 | 36 | 1025.8 |
| 20260906205017 | 29 | 229 | 8.0 | 22.5 | 0.00 | 0.00 | 0.00 | 36 | 1025.8 |
| 20260906204602 | 28 | 73 | 4.8 | 20.9 | 0.00 | 0.00 | 0.00 | 38 | 1025.7 |
| 20260906204016 | 28 | 194 | 6.4 | 19.3 | 0.00 | 0.00 | 0.00 | 39 | 1026.0 |
| 20260906203518 | 29 | 129 | 6.4 | 19.3 | 0.00 | 0.00 | 0.00 | 37 | 1025.9 |
| 20260906203053 | 28 | 221 | 4.8 | 17.7 | 0.00 | 0.00 | 0.00 | 38 | 1025.8 |
| 20260906202519 | 28 | 141 | 6.4 | 20.9 | 0.00 | 0.00 | 0.00 | 39 | 1025.9 |
| 20260906202021 | 28 | 140 | 9.7 | 20.9 | 0.00 | 0.00 | 0.00 | 38 | 1026.1 |
| 20260906201620 | 28 | 132 | 4.8 | 14.5 | 0.00 | 0.00 | 0.00 | 38 | 1026.0 |
| 20260906201020 | 27 | 198 | 3.2 | 14.5 | 0.00 | 0.00 | 0.00 | 40 | 1025.9 |
| 20260906200519 | 27 | 159 | 3.2 | 19.3 | 0.00 | 0.00 | 0.00 | 40 | 1026.1 |
| 20260906200058 | 27 | 93 | 8.0 | 19.3 | 0.00 | 0.00 | 0.00 | 40 | 1026.1 |
| 20260906195517 | 27 | 76 | 0.0 | 14.5 | 0.00 | 0.00 | 0.00 | 38 | 1026.2 |
| 20260906195017 | 28 | 190 | 3.2 | 16.1 | 0.00 | 0.00 | 0.00 | 37 | 1026.4 |
| 20260906194604 | 28 | 213 | 6.4 | 19.3 | 0.00 | 0.00 | 0.00 | 36 | 1026.5 |
| 20260906193521 | 28 | 178 | 8.0 | 24.1 | 0.00 | 0.00 | 0.00 | 36 | 1026.6 |
| 20260906193050 | 28 | 252 | 1.6 | 16.1 | 0.00 | 0.00 | 0.00 | 37 | 1026.5 |
| 20260906192517 | 28 | 83 | 4.8 | 24.1 | 0.00 | 0.00 | 0.00 | 35 | 1026.7 |
| 20260906192019 | 28 | 230 | 4.8 | 24.1 | 0.00 | 0.00 | 0.00 | 36 | 1026.7 |
| 20260906191605 | 28 | 163 | 4.8 | 17.7 | 0.00 | 0.00 | 0.00 | 36 | 1026.7 |
| 20260906191017 | 28 | 146 | 4.8 | 17.7 | 0.00 | 0.00 | 0.00 | 35 | 1026.9 |
| 20260906190519 | 28 | 121 | 8.0 | 16.1 | 0.00 | 0.00 | 0.00 | 35 | 1026.9 |
| 20260906190059 | 28 | 155 | 3.2 | 17.7 | 0.00 | 0.00 | 0.00 | 36 | 1026.9 |
| 20260906185520 | 28 | 124 | 6.4 | 17.7 | 0.00 | 0.00 | 0.00 | 37 | 1027.0 |
| 20260906185016 | 28 | 161 | 6.4 | 14.5 | 0.00 | 0.00 | 0.00 | 36 | 1027.0 |
| 20260906184559 | 28 | 227 | 1.6 | 11.3 | 0.00 | 0.00 | 0.00 | 36 | 1027.1 |
| 20260906183519 | 27 | 164 | 4.8 | 19.3 | 0.00 | 0.00 | 0.00 | 37 | 1027.4 |
| 20260906183048 | 27 | 190 | 4.8 | 14.5 | 0.00 | 0.00 | 0.00 | 38 | 1027.5 |
| 20260906182520 | 27 | 84 | 6.4 | 14.5 | 0.00 | 0.00 | 0.00 | 38 | 1027.6 |
| 20260906182021 | 26 | 192 | 6.4 | 14.5 | 0.00 | 0.00 | 0.00 | 39 | 1027.6 |
| 20260906181609 | 26 | 165 | 3.2 | 14.5 | 0.00 | 0.00 | 0.00 | 38 | 1027.7 |
| 20260906181018 | 27 | 78 | 1.6 | 17.7 | 0.00 | 0.00 | 0.00 | 38 | 1027.8 |
| 20260906180518 | 27 | 85 | 4.8 | 17.7 | 0.00 | 0.00 | 0.00 | 37 | 1027.8 |
| 20260906180051 | 26 | 113 | 6.4 | 14.5 | 0.00 | 0.00 | 0.00 | 38 | 1027.9 |
| 20260906175519 | 26 | 136 | 3.2 | 9.7 | 0.00 | 0.00 | 0.00 | 38 | 1028.1 |
| 20260906175022 | 26 | 154 | 3.2 | 8.0 | 0.00 | 0.00 | 0.00 | 39 | 1027.7 |
| 20260906174601 | 26 | 180 | 1.6 | 9.7 | 0.00 | 0.00 | 0.00 | 38 | 1028.0 |
| 20260906174017 | 27 | 197 | 3.2 | 14.5 | 0.00 | 0.00 | 0.00 | 37 | 1028.2 |
| 20260906173102 | 27 | 209 | 4.8 | 14.5 | 0.00 | 0.00 | 0.00 | 37 | 1028.1 |
| 20260906172019 | 27 | 127 | 4.8 | 14.5 | 0.00 | 0.00 | 0.00 | 37 | 1028.3 |
| 20260906171553 | 27 | 130 | 4.8 | 11.3 | 0.00 | 0.00 | 0.00 | 37 | 1028.3 |
| 20260906171018 | 27 | 94 | 3.2 | 14.5 | 0.00 | 0.00 | 0.00 | 36 | 1028.4 |
| 20260906170519 | 27 | 159 | 4.8 | 14.5 | 0.00 | 0.00 | 0.00 | 36 | 1028.4 |
| 20260906170053 | 27 | 191 | 1.6 | 9.7 | 0.00 | 0.00 | 0.00 | 37 | 1028.2 |
| 20260906165522 | 27 | 232 | 4.8 | 11.3 | 0.00 | 0.00 | 0.00 | 37 | 1028.2 |
| 20260906165019 | 27 | 243 | 3.2 | 11.3 | 0.00 | 0.00 | 0.00 | 37 | 1028.2 |
| 20260906164559 | 26 | 230 | 1.6 | 9.7 | 0.00 | 0.00 | 0.00 | 38 | 1028.1 |
| 20260906164017 | 26 | 63 | 1.6 | 9.7 | 0.00 | 0.00 | 0.00 | 38 | 1028.2 |
| 20260906163103 | 26 | 111 | 3.2 | 11.3 | 0.00 | 0.00 | 0.00 | 38 | 1028.4 |
| 20260906162019 | 26 | 119 | 1.6 | 8.0 | 0.00 | 0.00 | 0.00 | 37 | 1028.4 |
| 20260906161601 | 25 | 100 | 0.0 | 8.0 | 0.00 | 0.00 | 0.00 | 38 | 1028.2 |
| 20260906161020 | 25 | 146 | 3.2 | 9.7 | 0.00 | 0.00 | 0.00 | 39 | 1028.2 |
| 20260906160517 | 25 | 165 | 3.2 | 9.7 | 0.00 | 0.00 | 0.00 | 40 | 1028.1 |
| 20260906160056 | 25 | 82 | 0.0 | 8.0 | 0.00 | 0.00 | 0.00 | 41 | 1028.1 |
| 20260906154552 | 24 | 81 | 3.2 | 11.3 | 0.00 | 0.00 | 0.00 | 43 | 1028.0 |
| 20260906153517 | 23 | 86 | 4.8 | 14.5 | 0.00 | 0.00 | 0.00 | 41 | 1027.7 |
| 20260906153107 | 23 | 115 | 3.2 | 14.5 | 0.00 | 0.00 | 0.00 | 44 | 1027.9 |
| 20260906152517 | 23 | 92 | 6.4 | 14.5 | 0.00 | 0.00 | 0.00 | 42 | 1028.0 |
| 20260906152021 | 23 | 82 | 4.8 | 14.5 | 0.00 | 0.00 | 0.00 | 43 | 1027.9 |
| 20260906151548 | 23 | 61 | 4.8 | 9.7 | 0.00 | 0.00 | 0.00 | 44 | 1027.7 |
| 20260906151019 | 23 | 40 | 1.6 | 9.7 | 0.00 | 0.00 | 0.00 | 45 | 1027.7 |
| 20260906150516 | 22 | 9 | 3.2 | 9.7 | 0.00 | 0.00 | 0.00 | 45 | 1027.6 |
| 20260906150059 | 22 | 53 | 3.2 | 9.7 | 0.00 | 0.00 | 0.00 | 46 | 1027.4 |
| 20260906145518 | 22 | 65 | 1.6 | 9.7 | 0.00 | 0.00 | 0.00 | 47 | 1027.7 |
| 20260906145019 | 22 | 355 | 1.6 | 12.9 | 0.00 | 0.00 | 0.00 | 47 | 1027.6 |
| 20260906144557 | 21 | 59 | 3.2 | 12.9 | 0.00 | 0.00 | 0.00 | 47 | 1027.6 |
| 20260906143056 | 20 | 30 | 0.0 | 8.0 | 0.00 | 0.00 | 0.00 | 54 | 1027.4 |
| 20260906142519 | 20 | 36 | 1.6 | 8.0 | 0.00 | 0.00 | 0.00 | 53 | 1027.3 |
| 20260906142018 | 20 | 57 | 0.0 | 8.0 | 0.00 | 0.00 | 0.00 | 55 | 1027.2 |
| 20260906141548 | 19 | 53 | 1.6 | 12.9 | 0.00 | 0.00 | 0.00 | 55 | 1027.4 |
| 20260906141024 | 18 | 22 | 0.0 | 6.4 | 0.00 | 0.00 | 0.00 | 57 | 1027.2 |
| 20260906140519 | 18 | 56 | 1.6 | 4.8 | 0.00 | 0.00 | 0.00 | 58 | 1027.1 |
| 20260906140100 | 17 | 55 | 0.0 | 4.8 | 0.00 | 0.00 | 0.00 | 59 | 1027.2 |
| 20260906135517 | 17 | 55 | 0.0 | 12.9 | 0.00 | 0.00 | 0.00 | 60 | 1027.0 |
| 20260906135018 | 16 | 49 | 1.6 | 12.9 | 0.00 | 0.00 | 0.00 | 62 | 1026.9 |
| 20260906134605 | 16 | 44 | 0.0 | 9.7 | 0.00 | 0.00 | 0.00 | 62 | 1026.9 |
| 20260906134019 | 15 | 59 | 3.2 | 9.7 | 0.00 | 0.00 | 0.00 | 63 | 1026.8 |
| 20260906133100 | 15 | 51 | 1.6 | 6.4 | 0.00 | 0.00 | 0.00 | 63 | 1026.8 |
| 20260906132520 | 15 | 38 | 1.6 | 9.7 | 0.00 | 0.00 | 0.00 | 63 | 1026.7 |
| 20260906132019 | 15 | 73 | 3.2 | 8.0 | 0.00 | 0.00 | 0.00 | 63 | 1026.6 |
| 20260906131552 | 15 | 49 | 1.6 | 6.4 | 0.00 | 0.00 | 0.00 | 63 | 1026.5 |
| 20260906131017 | 15 | 39 | 1.6 | 6.4 | 0.00 | 0.00 | 0.00 | 63 | 1026.4 |
| 20260906130519 | 15 | 58 | 0.0 | 8.0 | 0.00 | 0.00 | 0.00 | 63 | 1026.4 |
| 20260906130112 | 15 | 58 | 3.2 | 8.0 | 0.00 | 0.00 | 0.00 | 62 | 1026.5 |
| 20260906125517 | 15 | 59 | 1.6 | 6.4 | 0.00 | 0.00 | 0.00 | 62 | 1026.5 |
| 20260906124557 | 15 | 55 | 1.6 | 8.0 | 0.00 | 0.00 | 0.00 | 61 | 1026.6 |
| 20260906124018 | 15 | 59 | 3.2 | 8.0 | 0.00 | 0.00 | 0.00 | 61 | 1026.6 |
| 20260906123517 | 15 | 59 | 3.2 | 6.4 | 0.00 | 0.00 | 0.00 | 60 | 1026.7 |
| 20260906123057 | 16 | 54 | 3.2 | 8.0 | 0.00 | 0.00 | 0.00 | 59 | 1026.7 |
| 20260906122023 | 16 | 60 | 0.0 | 11.3 | 0.00 | 0.00 | 0.00 | 58 | 1026.6 |
| 20260906121608 | 16 | 45 | 0.0 | 8.0 | 0.00 | 0.00 | 0.00 | 58 | 1026.6 |
| 20260906120520 | 16 | 71 | 1.6 | 11.3 | 0.00 | 0.00 | 0.00 | 58 | 1026.5 |
| 20260906120058 | 16 | 21 | 1.6 | 8.0 | 0.00 | 0.00 | 0.00 | 58 | 1026.5 |
| 20260906114604 | 16 | 93 | 0.0 | 6.4 | 0.00 | 0.00 | 0.00 | 58 | 1026.4 |
| 20260906113106 | 15 | 96 | 0.0 | 4.8 | 0.00 | 0.00 | 0.00 | 59 | 1026.2 |
| 20260906112020 | 15 | 97 | 0.0 | 6.4 | 0.00 | 0.00 | 0.00 | 59 | 1026.2 |
| 20260906111556 | 15 | 113 | 0.0 | 4.8 | 0.00 | 0.00 | 0.00 | 59 | 1026.0 |
| 20260906111017 | 15 | 117 | 0.0 | 3.2 | 0.00 | 0.00 | 0.00 | 60 | 1026.0 |
| 20260906110517 | 15 | 128 | 0.0 | 0.0 | 0.00 | 0.00 | 0.00 | 60 | 1025.9 |
| 20260906110054 | 15 | 128 | 0.0 | 0.0 | 0.00 | 0.00 | 0.00 | 60 | 1026.0 |
| 20260906104555 | 15 | 128 | 0.0 | 0.0 | 0.00 | 0.00 | 0.00 | 60 | 1026.0 |
| 20260906103104 | 15 | 128 | 0.0 | 0.0 | 0.00 | 0.00 | 0.00 | 61 | 1026.2 |
| 20260906102518 | 15 | 128 | 0.0 | 0.0 | 0.00 | 0.00 | 0.00 | 61 | 1026.2 |
| 20260906101605 | 15 | 128 | 0.0 | 0.0 | 0.00 | 0.00 | 0.00 | 60 | 1026.3 |
| 20260906101023 | 16 | 128 | 0.0 | 0.0 | 0.00 | 0.00 | 0.00 | 60 | 1026.3 |
| 20260906100521 | 15 | 128 | 0.0 | 0.0 | 0.00 | 0.00 | 0.00 | 60 | 1026.3 |
| 20260906100108 | 15 | 128 | 0.0 | 0.0 | 0.00 | 0.00 | 0.00 | 62 | 1026.3 |
| 20260906095520 | 15 | 128 | 0.0 | 0.0 | 0.00 | 0.00 | 0.00 | 62 | 1026.4 |
| 20260906094559 | 16 | 128 | 0.0 | 3.2 | 0.00 | 0.00 | 0.00 | 62 | 1026.5 |
| 20260906093105 | 16 | 128 | 1.6 | 6.4 | 0.00 | 0.00 | 0.00 | 61 | 1026.5 |
| 20260906092520 | 16 | 129 | 1.6 | 6.4 | 0.00 | 0.00 | 0.00 | 62 | 1026.5 |
| 20260906091614 | 16 | 130 | 1.6 | 6.4 | 0.00 | 0.00 | 0.00 | 61 | 1026.4 |
| 20260906090055 | 16 | 130 | 0.0 | 1.6 | 0.00 | 0.00 | 0.00 | 62 | 1026.2 |
| 20260906085019 | 16 | 130 | 0.0 | 1.6 | 0.00 | 0.00 | 0.00 | 63 | 1026.2 |
| 20260906084559 | 16 | 130 | 0.0 | 0.0 | 0.00 | 0.00 | 0.00 | 64 | 1026.4 |
| 20260906084019 | 16 | 130 | 0.0 | 0.0 | 0.00 | 0.00 | 0.00 | 64 | 1026.4 |
| 20260906083100 | 16 | 130 | 0.0 | 3.2 | 0.00 | 0.00 | 0.00 | 66 | 1026.4 |
| 20260906081610 | 16 | 130 | 0.0 | 1.6 | 0.00 | 0.00 | 0.00 | 68 | 1026.4 |
| 20260906080114 | 16 | 130 | 0.0 | 0.0 | 0.00 | 0.00 | 0.00 | 73 | 1026.4 |
| 20260906075518 | 16 | 130 | 0.0 | 1.6 | 0.00 | 0.00 | 0.00 | 73 | 1026.5 |
| 20260906074604 | 16 | 130 | 0.0 | 0.0 | 0.00 | 0.00 | 0.00 | 76 | 1026.6 |
| 20260906074019 | 16 | 130 | 0.0 | 0.0 | 0.00 | 0.00 | 0.00 | 77 | 1026.6 |
| 20260906073519 | 16 | 130 | 0.0 | 0.0 | 0.00 | 0.00 | 0.00 | 77 | 1026.7 |
| 20260906073108 | 16 | 130 | 0.0 | 0.0 | 0.00 | 0.00 | 0.00 | 75 | 1026.7 |
| 20260906072518 | 16 | 130 | 0.0 | 0.0 | 0.00 | 0.00 | 0.00 | 75 | 1026.8 |
| 20260906071614 | 16 | 130 | 0.0 | 0.0 | 0.00 | 0.00 | 0.00 | 74 | 1026.9 |
| 20260906070103 | 16 | 130 | 0.0 | 0.0 | 0.00 | 0.00 | 0.00 | 74 | 1027.0 |
| 20260906064603 | 16 | 130 | 0.0 | 3.2 | 0.00 | 0.00 | 0.00 | 74 | 1027.1 |
| 20260906063101 | 16 | 130 | 0.0 | 1.6 | 0.00 | 0.00 | 0.00 | 75 | 1026.9 |
| 20260906061553 | 16 | 130 | 0.0 | 3.2 | 0.00 | 0.00 | 0.00 | 75 | 1027.0 |
| 20260906061017 | 16 | 130 | 0.0 | 0.0 | 0.00 | 0.00 | 0.00 | 75 | 1026.9 |
| 20260906060518 | 16 | 130 | 0.0 | 1.6 | 0.00 | 0.00 | 0.00 | 76 | 1026.7 |
| 20260906060151 | 16 | 130 | 0.0 | 1.6 | 0.00 | 0.00 | 0.00 | 76 | 1026.7 |
| 20260906054613 | 16 | 130 | 0.0 | 1.6 | 0.00 | 0.00 | 0.00 | 76 | 1026.4 |
| 20260906053118 | 16 | 130 | 0.0 | 3.2 | 0.00 | 0.00 | 0.00 | 77 | 1026.5 |
| 20260906051605 | 15 | 130 | 0.0 | 1.6 | 0.00 | 0.00 | 0.00 | 78 | 1026.6 |
| 20260906051018 | 15 | 130 | 0.0 | 0.0 | 0.00 | 0.00 | 0.00 | 78 | 1026.6 |
| 20260906050119 | 16 | 130 | 0.0 | 0.0 | 0.00 | 0.00 | 0.00 | 77 | 1026.6 |
| 20260906043523 | 16 | 130 | 0.0 | 0.0 | 0.00 | 0.00 | 0.00 | 74 | 1027.0 |
| 20260906043122 | 17 | 130 | 0.0 | 0.0 | 0.00 | 0.00 | 0.00 | 73 | 1026.9 |
| 20260906041620 | 17 | 130 | 0.0 | 0.0 | 0.00 | 0.00 | 0.00 | 71 | 1027.1 |
| 20260906041019 | 17 | 130 | 0.0 | 1.6 | 0.00 | 0.00 | 0.00 | 71 | 1027.1 |
| 20260906040518 | 18 | 130 | 0.0 | 1.6 | 0.00 | 0.00 | 0.00 | 70 | 1027.2 |
| 20260906040040 | 18 | 130 | 0.0 | 0.0 | 0.00 | 0.00 | 0.00 | 69 | 1027.2 |
| 20260906035519 | 18 | 130 | 0.0 | 0.0 | 0.00 | 0.00 | 0.00 | 68 | 1027.2 |
| 20260906035017 | 18 | 130 | 0.0 | 0.0 | 0.00 | 0.00 | 0.00 | 67 | 1027.1 |
| 20260906034019 | 19 | 130 | 0.0 | 3.2 | 0.00 | 0.00 | 0.00 | 65 | 1027.3 |
| 20260906033519 | 20 | 130 | 0.0 | 3.2 | 0.00 | 0.00 | 0.00 | 65 | 1027.2 |
| 20260906032519 | 20 | 126 | 3.2 | 6.4 | 0.00 | 0.00 | 0.00 | 65 | 1026.9 |
| 20260906032022 | 20 | 136 | 0.0 | 14.5 | 0.00 | 0.00 | 0.00 | 65 | 1026.9 |
| 20260906031017 | 20 | 113 | 0.0 | 11.3 | 0.00 | 0.00 | 0.00 | 64 | 1026.9 |
| 20260906030517 | 20 | 110 | 0.0 | 11.3 | 0.00 | 0.00 | 0.00 | 64 | 1026.8 |
| 20260906030038 | 20 | 103 | 3.2 | 11.3 | 0.00 | 0.00 | 0.00 | 64 | 1026.7 |
| 20260906025521 | 20 | 147 | 1.6 | 12.9 | 0.00 | 0.00 | 0.00 | 64 | 1026.7 |
| 20260906025018 | 20 | 134 | 4.8 | 12.9 | 0.00 | 0.00 | 0.00 | 64 | 1026.5 |
| 20260906024019 | 21 | 130 | 0.0 | 9.7 | 0.00 | 0.00 | 0.00 | 63 | 1026.5 |
| 20260906023519 | 21 | 128 | 4.8 | 12.9 | 0.00 | 0.00 | 0.00 | 63 | 1026.6 |
| 20260906022519 | 21 | 91 | 4.8 | 22.5 | 0.00 | 0.00 | 0.00 | 61 | 1026.5 |
| 20260906022019 | 21 | 82 | 3.2 | 22.5 | 0.00 | 0.00 | 0.00 | 60 | 1026.4 |
| 20260906021024 | 20 | 105 | 3.2 | 6.4 | 0.00 | 0.00 | 0.00 | 42 | 1026.1 |
| 20260906020517 | 20 | 345 | 0.0 | 1.6 | 0.00 | 0.00 | 0.00 | 42 | 1025.9 |
| 20260906020048 | 20 | 345 | 0.0 | 3.2 | 0.00 | 0.00 | 0.00 | 41 | 1025.8 |
| 20260906015518 | 20 | 345 | 0.0 | 3.2 | 0.00 | 0.00 | 0.00 | 41 | 1025.8 |
| 20260906015019 | 21 | 345 | 0.0 | 6.4 | 0.00 | 0.00 | 0.00 | 40 | 1025.8 |
| 20260906014024 | 21 | 323 | 1.6 | 3.2 | 0.00 | 0.00 | 0.00 | 39 | 1025.7 |
| 20260906013520 | 22 | 323 | 0.0 | 3.2 | 0.00 | 0.00 | 0.00 | 39 | 1025.8 |
| 20260906013038 | 22 | 320 | 0.0 | 3.2 | 0.00 | 0.00 | 0.00 | 38 | 1025.6 |
| 20260906012517 | 22 | 319 | 0.0 | 4.8 | 0.00 | 0.00 | 0.00 | 37 | 1025.5 |
| 20260906012022 | 23 | 319 | 1.6 | 4.8 | 0.00 | 0.00 | 0.00 | 37 | 1025.6 |
| 20260906011017 | 23 | 315 | 0.0 | 3.2 | 0.00 | 0.00 | 0.00 | 35 | 1025.6 |
| 20260906010519 | 23 | 315 | 0.0 | 3.2 | 0.00 | 0.00 | 0.00 | 35 | 1025.6 |
| 20260906005517 | 24 | 315 | 0.0 | 6.4 | 0.00 | 0.00 | 0.00 | 35 | 1025.9 |
| 20260906005017 | 24 | 325 | 0.0 | 8.0 | 0.00 | 0.00 | 0.00 | 35 | 1026.0 |
| 20260906004018 | 25 | 318 | 0.0 | 3.2 | 0.00 | 0.00 | 0.00 | 35 | 1026.2 |
| 20260906003518 | 25 | 319 | 0.0 | 6.4 | 0.00 | 0.00 | 0.00 | 34 | 1026.2 |
| 20260906003038 | 25 | 317 | 0.0 | 6.4 | 0.00 | 0.00 | 0.00 | 34 | 1026.4 |
| 20260906002517 | 25 | 336 | 1.6 | 8.0 | 0.00 | 0.00 | 0.00 | 33 | 1026.2 |
| 20260906002020 | 25 | 265 | 3.2 | 9.7 | 0.00 | 0.00 | 0.00 | 32 | 1026.2 |
| 20260906001023 | 26 | 103 | 0.0 | 3.2 | 0.00 | 0.00 | 0.00 | 32 | 1026.1 |
| 20260906000519 | 26 | 103 | 0.0 | 3.2 | 0.00 | 0.00 | 0.00 | 31 | 1026.0 |
| 20260905235517 | 26 | 103 | 0.0 | 6.4 | 0.00 | 0.00 | 0.00 | 30 | 1026.1 |
| 20260905235024 | 27 | 92 | 1.6 | 6.4 | 0.00 | 0.00 | 0.00 | 30 | 1026.0 |
| 20260905234018 | 27 | 84 | 0.0 | 6.4 | 0.00 | 0.00 | 0.00 | 29 | 1026.1 |
| 20260905233518 | 27 | 10 | 0.0 | 4.8 | 0.00 | 0.00 | 0.00 | 29 | 1026.1 |
| 20260905232522 | 27 | 76 | 3.2 | 9.7 | 0.00 | 0.00 | 0.00 | 28 | 1025.9 |
| 20260905231021 | 27 | 81 | 1.6 | 4.8 | 0.00 | 0.00 | 0.00 | 29 | 1025.9 |
| 20260905230517 | 27 | 84 | 1.6 | 11.3 | 0.00 | 0.00 | 0.00 | 29 | 1026.0 |
| 20260905230039 | 26 | 101 | 3.2 | 11.3 | 0.00 | 0.00 | 0.00 | 31 | 1026.0 |
| 20260905225519 | 26 | 31 | 1.6 | 8.0 | 0.00 | 0.00 | 0.00 | 33 | 1025.8 |
| 20260905225016 | 26 | 360 | 0.0 | 8.0 | 0.00 | 0.00 | 0.00 | 33 | 1025.8 |
| 20260905224538 | 25 | 351 | 0.0 | 4.8 | 0.00 | 0.00 | 0.00 | 34 | 1025.8 |
| 20260905224023 | 25 | 347 | 0.0 | 4.8 | 0.00 | 0.00 | 0.00 | 35 | 1025.8 |
| 20260905223517 | 25 | 346 | 0.0 | 4.8 | 0.00 | 0.00 | 0.00 | 37 | 1025.9 |
| 20260905223038 | 25 | 313 | 0.0 | 6.4 | 0.00 | 0.00 | 0.00 | 38 | 1026.1 |
| 20260905222518 | 25 | 290 | 0.0 | 6.4 | 0.00 | 0.00 | 0.00 | 35 | 1026.4 |
| 20260905222018 | 25 | 118 | 0.0 | 3.2 | 0.00 | 0.00 | 0.00 | 35 | 1026.4 |
| 20260905221018 | 25 | 118 | 0.0 | 3.2 | 0.00 | 0.00 | 0.00 | 35 | 1026.2 |
| 20260905220518 | 25 | 118 | 0.0 | 4.8 | 0.00 | 0.00 | 0.00 | 35 | 1026.2 |
| 20260905215520 | 24 | 123 | 0.0 | 9.7 | 0.00 | 0.00 | 0.00 | 36 | 1026.4 |